Latest Weather Observations for Brisbane

IDQ60901

Issued at 10:21 am EST Wednesday 8 July 2015 (issued every 10 minutes, with the page automatically refreshed every 10 minutes)

About weather observations | Map of Brisbane area stations | Latest observations for Brisbane area | Other Formats
Station Details ID: 040913 Name: BRISBANE Lat: -27.48 Lon: 153.04 Height: 8.13 m
Data from the previous 72 hours. | See also: Recent months at Brisbane
Date/Time
EST
Tmp

°C
App
Tmp
°C
Dew
Point
°C
Rel
Hum
%
Delta-T

°C
Wind Press
QNH
hPa
Press
MSL
hPa
Rain
since
9 am
mm
Dir
 
Spd
km/h
Gust
km/h
Spd
kts
Gust
kts
08/10:00am 17.3 15.5 7.9 54 4.7 SSW 7 15 4 8 1024.2 1024.2 0.0
08/09:30am 16.0 14.2 7.2 56 4.4 SSW 6 11 3 6 1024.4 1024.4 0.0
08/09:00am 14.7 12.9 7.3 61 3.6 SSW 6 13 3 7 1024.2 1024.2 0.0
08/08:30am 13.6 11.7 6.9 64 3.2 SW 6 11 3 6 1024.1 1024.1 0.0
08/08:00am 12.4 10.5 6.5 67 2.8 SW 6 11 3 6 1023.9 1023.9 0.0
08/07:30am 10.9 8.7 6.3 73 2.2 WSW 7 9 4 5 1023.7 1023.7 0.0
08/07:00am 9.2 7.2 6.1 81 1.4 W 6 7 3 4 1023.3 1023.3 0.0
08/06:30am 8.1 6.3 5.4 83 1.2 WSW 4 7 2 4 1023.1 1023.1 0.0
08/06:00am 7.1 5.8 4.2 82 1.2 CALM 0 0 0 0 1022.9 1022.9 0.0
08/05:00am 9.3 7.4 4.9 74 2.0 SSW 4 7 2 4 1022.1 1022.1 0.0
08/04:30am 9.7 7.9 5.3 74 2.0 WSW 4 9 2 5 1021.6 1021.6 0.0
08/04:00am 9.8 7.5 5.0 72 2.2 WSW 6 11 3 6 1021.5 1021.5 0.0
08/03:30am 10.0 7.7 5.0 71 2.3 WSW 6 15 3 8 1021.6 1021.6 0.0
08/03:00am 9.8 7.5 5.0 72 2.2 WSW 6 9 3 5 1021.5 1021.5 0.0
08/02:30am 9.9 7.7 5.1 72 2.2 WSW 6 11 3 6 1021.5 1021.5 0.0
08/02:00am 10.4 8.5 5.0 69 2.4 SW 4 11 2 6 1021.5 1021.5 0.0
08/01:30am 10.8 8.6 5.1 68 2.6 SW 6 9 3 5 1021.6 1021.6 0.0
08/01:00am 10.8 8.7 5.6 70 2.4 WSW 6 11 3 6 1021.6 1021.6 0.0
08/12:30am 11.3 9.4 5.0 65 2.9 SW 4 7 2 4 1021.4 1021.4 0.0
08/12:00am 12.4 10.2 5.3 62 3.3 WSW 6 9 3 5 1021.2 1021.2 0.0
 
Date/Time
EST
Tmp

°C
App
Tmp
°C
Dew
Point
°C
Rel
Hum
%
Delta-T

°C
Wind Press
QNH
hPa
Press
MSL
hPa
Rain
since
9 am
mm
Dir
 
Spd
km/h
Gust
km/h
Spd
kts
Gust
kts
07/11:30pm 12.4 10.2 5.3 62 3.3 WSW 6 11 3 6 1021.2 1021.2 0.0
07/11:00pm 12.0 10.5 5.2 63 3.1 WSW 2 6 1 3 1021.3 1021.3 0.0
07/10:30pm 12.4 11.0 5.6 63 3.2 WSW 2 6 1 3 1021.4 1021.4 0.0
07/10:00pm 12.3 10.9 5.7 64 3.1 SW 2 4 1 2 1021.2 1021.2 0.0
07/09:30pm 12.3 10.8 6.8 69 2.6 W 4 6 2 3 1021.1 1021.1 0.0
07/09:00pm 12.7 11.4 6.1 64 3.1 NW 2 6 1 3 1020.8 1020.8 0.0
07/08:30pm 12.7 11.3 5.6 62 3.3 ESE 2 4 1 2 1020.6 1020.6 0.0
07/08:00pm 12.6 11.8 6.4 66 2.9 CALM 0 2 0 1 1020.3 1020.3 0.0
07/07:30pm 13.0 11.9 6.8 66 3.0 ESE 2 4 1 2 1019.9 1019.9 0.0
07/07:00pm 12.7 11.9 6.3 65 3.0 CALM 0 4 0 2 1019.6 1019.6 0.0
07/06:30pm 13.0 12.0 5.7 61 3.4 CALM 0 0 0 0 1019.4 1019.4 0.0
07/06:00pm 14.3 13.3 5.4 55 4.2 CALM 0 2 0 1 1018.9 1018.9 0.0
07/05:30pm 16.6 14.8 5.3 47 5.4 E 4 6 2 3 1018.4 1018.4 0.0
07/05:00pm 17.6 15.1 4.9 43 6.1 E 7 13 4 7 1018.0 1018.0 0.0
07/04:30pm 18.9 15.9 4.3 38 7.0 ENE 9 15 5 8 1017.6 1017.6 0.0
07/04:00pm 19.9 17.3 4.4 36 7.5 ENE 7 13 4 7 1017.1 1017.1 0.0
07/03:30pm 22.6 19.9 0.4 23 10.1 WSW 4 7 2 4 1016.8 1016.8 0.0
07/03:00pm 22.6 19.6 1.0 24 9.9 S 6 11 3 6 1016.5 1016.5 0.0
07/02:30pm 22.3 19.8 1.3 25 9.7 SSE 4 9 2 5 1016.4 1016.4 0.0
07/02:00pm 22.1 19.0 1.2 25 9.6 SE 7 13 4 7 1016.4 1016.4 0.0
07/01:30pm 21.8 19.0 2.0 27 9.2 SSW 6 15 3 8 1016.4 1016.4 0.0
07/01:00pm 21.8 19.6 5.3 34 8.2 WSW 6 9 3 5 1016.5 1016.5 0.0
07/12:30pm 21.0 18.4 3.2 31 8.4 SW 6 11 3 6 1016.8 1016.8 0.0
07/12:00pm 20.4 17.6 3.2 32 8.1 SSW 7 13 4 7 1017.2 1017.2 0.0
07/11:30am 19.9 17.3 4.0 35 7.6 WSW 7 17 4 9 1017.6 1017.6 0.0
07/11:00am 19.3 16.9 5.4 40 6.8 WSW 7 17 4 9 1018.1 1018.1 0.0
07/10:30am 18.4 15.5 4.9 41 6.5 SW 9 17 5 9 1018.3 1018.3 0.0
07/10:00am 18.5 15.8 3.9 38 6.9 SW 7 13 4 7 1018.4 1018.4 0.0
07/09:30am 17.7 15.7 6.3 47 5.6 WSW 6 9 3 5 1018.6 1018.6 0.0
07/09:00am 16.9 15.7 8.1 56 4.5 SSW 4 7 2 4 1018.6 1018.6 0.0
07/08:30am 16.0 14.3 7.5 57 4.2 SW 6 9 3 5 1018.3 1018.3 0.0
07/08:00am 14.4 13.2 8.1 66 3.1 SSE 4 6 2 3 1018.1 1018.1 0.0
07/07:30am 11.9 11.3 8.9 82 1.5 SSE 2 4 1 2 1017.8 1017.8 0.0
07/07:00am 10.4 9.2 8.2 86 1.1 SE 4 4 2 2 1017.4 1017.4 0.0
07/06:30am 10.6 9.8 8.0 84 1.3 SW 2 6 1 3 1017.1 1017.1 0.0
07/06:00am 10.9 10.1 8.0 82 1.4 WSW 2 6 1 3 1017.0 1017.0 0.0
07/05:30am 12.0 11.0 8.8 81 1.6 WSW 4 6 2 3 1016.7 1016.7 0.0
07/05:00am 11.9 10.6 9.3 84 1.3 SW 6 9 3 5 1016.4 1016.4 0.0
07/04:30am 11.7 10.8 9.3 85 1.2 SW 4 6 2 3 1016.5 1016.5 0.0
07/04:00am 11.8 10.8 9.0 83 1.4 W 4 6 2 3 1016.4 1016.4 0.0
07/03:30am 12.3 11.4 9.3 82 1.5 W 4 6 2 3 1016.4 1016.4 0.0
07/03:00am 12.6 11.8 9.6 82 1.5 W 4 7 2 4 1016.4 1016.4 0.0
07/02:30am 12.7 11.8 9.3 80 1.7 SW 4 9 2 5 1016.3 1016.3 0.0
07/02:00am 13.4 12.7 10.0 80 1.7 WSW 4 6 2 3 1016.6 1016.6 0.0
07/01:30am 14.1 13.4 9.9 76 2.2 WSW 4 7 2 4 1016.7 1016.7 0.0
07/01:00am 14.2 13.4 9.8 75 2.3 WSW 4 6 2 3 1016.7 1016.7 0.0
07/12:30am 14.2 13.5 10.2 77 2.1 W 4 4 2 2 1016.6 1016.6 0.0
07/12:00am 14.3 14.1 10.3 77 2.1 W 2 6 1 3 1016.6 1016.6 0.0
 
Date/Time
EST
Tmp

°C
App
Tmp
°C
Dew
Point
°C
Rel
Hum
%
Delta-T

°C
Wind Press
QNH
hPa
Press
MSL
hPa
Rain
since
9 am
mm
Dir
 
Spd
km/h
Gust
km/h
Spd
kts
Gust
kts
06/11:30pm 14.3 13.6 9.9 75 2.3 W 4 6 2 3 1016.6 1016.6 0.0
06/11:00pm 14.0 14.2 10.4 79 1.9 CALM 0 0 0 0 1016.7 1016.7 0.0
06/10:30pm 14.6 14.9 11.0 79 1.9 CALM 0 0 0 0 1016.7 1016.7 0.0
06/10:00pm 14.2 14.0 10.6 79 1.9 E 2 4 1 2 1016.4 1016.4 0.0
06/09:30pm 14.7 14.2 10.7 77 2.1 ENE 4 6 2 3 1016.3 1016.3 0.0
06/09:00pm 15.2 15.5 10.8 75 2.3 CALM 0 0 0 0 1016.3 1016.3 0.0
06/08:30pm 16.1 15.9 10.6 70 2.9 E 2 4 1 2 1016.3 1016.3 0.0
06/08:00pm 17.2 17.2 11.2 68 3.2 NNE 2 6 1 3 1016.2 1016.2 0.0
06/07:30pm 16.6 16.5 12.0 74 2.5 NNE 4 6 2 3 1016.2 1016.2 0.0
06/07:00pm 15.6 15.4 10.4 71 2.7 ENE 2 6 1 3 1016.1 1016.1 0.0
06/06:30pm 16.8 16.5 10.2 65 3.5 NE 2 6 1 3 1015.9 1015.9 0.0
06/06:00pm 17.9 17.1 9.8 59 4.3 NE 4 6 2 3 1015.6 1015.6 0.0
06/05:30pm 19.4 19.0 9.6 53 5.2 N 2 6 1 3 1015.3 1015.3 0.0
06/05:00pm 20.2 19.7 9.2 49 5.8 NNW 2 6 1 3 1015.1 1015.1 0.0
06/04:30pm 22.3 21.1 9.5 44 6.9 NW 6 11 3 6 1015.0 1015.0 0.0
06/04:00pm 23.0 21.6 9.4 42 7.3 WNW 7 15 4 8 1015.0 1015.0 0.0
06/03:30pm 22.9 21.1 9.3 42 7.3 WNW 9 17 5 9 1015.1 1015.1 0.0
06/03:00pm 23.6 22.2 9.6 41 7.6 WNW 7 17 4 9 1015.3 1015.3 0.0
06/02:30pm 23.9 22.3 8.7 38 8.1 WNW 7 13 4 7 1015.5 1015.5 0.0
06/02:00pm 24.1 23.0 8.5 37 8.3 NW 4 9 2 5 1015.6 1015.6 0.0
06/01:30pm 23.7 22.1 8.2 37 8.2 NW 6 11 3 6 1015.9 1015.9 0.0
06/01:00pm 23.0 21.6 9.0 41 7.5 SSW 6 11 3 6 1016.4 1016.4 0.0
06/12:30pm 22.9 21.9 9.0 41 7.4 WNW 4 9 2 5 1016.9 1016.9 0.0
06/12:00pm 22.2 21.0 9.7 45 6.7 SW 6 9 3 5 1017.5 1017.5 0.0
06/11:30am 21.3 20.9 11.1 52 5.6 WSW 4 6 2 3 1018.1 1018.1 0.0
06/11:00am 19.5 19.0 10.8 57 4.7 SW 4 6 2 3 1018.6 1018.6 0.0
06/10:30am 18.0 17.0 10.4 61 4.1 SW 6 7 3 4 1019.2 1019.2 0.0
06/10:00am 16.7 16.0 9.9 64 3.6 WSW 4 6 2 3 1019.4 1019.4 0.0
06/09:30am 15.4 14.6 9.7 69 3.0 SW 4 7 2 4 1019.8 1019.8 0.0
06/09:00am 14.4 13.5 9.4 72 2.6 WSW 4 6 2 3 1020.0 1020.0 0.0
06/08:30am 13.4 12.7 8.7 73 2.4 S 2 6 1 3 1020.0 1020.0 0.0
06/08:00am 12.0 11.8 9.0 82 1.5 CALM 0 2 0 1 1019.8 1019.8 0.0
06/07:30am 10.3 9.6 8.6 89 0.8 SW 2 4 1 2 1019.9 1019.9 0.0
06/07:00am 9.5 8.7 8.1 91 0.7 WSW 2 6 1 3 1019.7 1019.7 0.0
06/06:30am 9.6 8.8 8.0 90 0.8 SW 2 6 1 3 1019.7 1019.7 0.0
06/06:00am 9.8 9.0 8.2 90 0.8 WSW 2 4 1 2 1019.5 1019.5 0.0
06/05:30am 10.0 9.4 8.8 92 0.6 WSW 2 6 1 3 1019.6 1019.6 0.0
06/05:00am 9.9 9.2 8.5 91 0.7 WSW 2 4 1 2 1019.4 1019.4 0.0
06/04:30am 10.1 9.8 8.7 91 0.7 CALM 0 2 0 1 1019.3 1019.3 0.0
06/04:00am 10.3 10.0 8.6 89 0.8 CALM 0 2 0 1 1019.4 1019.4 0.0
06/03:30am 11.2 10.7 9.3 88 1.0 WSW 2 6 1 3 1019.5 1019.5 0.0
06/03:00am 10.9 10.3 9.0 88 0.9 WSW 2 4 1 2 1019.5 1019.5 0.0
06/02:30am 11.8 11.3 9.2 84 1.3 SW 2 4 1 2 1019.5 1019.5 0.0
06/02:00am 12.4 11.8 9.1 80 1.7 WSW 2 4 1 2 1019.7 1019.7 0.0
06/01:30am 13.6 12.9 10.0 79 1.9 WSW 4 7 2 4 1020.1 1020.1 0.0
06/01:00am 14.2 14.4 10.6 79 1.9 CALM 0 0 0 0 1020.3 1020.3 0.0
06/12:30am 16.6 16.1 12.2 75 2.4 NNW 6 11 3 6 1020.4 1020.4 0.0
06/12:00am 16.4 16.5 12.6 78 2.1 NW 4 7 2 4 1020.5 1020.5 0.0
 
Date/Time
EST
Tmp

°C
App
Tmp
°C
Dew
Point
°C
Rel
Hum
%
Delta-T

°C
Wind Press
QNH
hPa
Press
MSL
hPa
Rain
since
9 am
mm
Dir
 
Spd
km/h
Gust
km/h
Spd
kts
Gust
kts
05/11:30pm 16.9 16.4 12.6 76 2.4 NNW 7 13 4 7 1020.4 1020.4 0.0
05/11:00pm 16.7 16.1 11.8 73 2.7 NNW 6 13 3 7 1020.4 1020.4 0.0
05/10:30pm 17.1 16.3 11.8 71 2.9 NW 7 13 4 7 1020.7 1020.7 0.0
05/10:00pm 17.4 16.7 11.9 70 3.0 NNW 7 15 4 8 1020.8 1020.8 0.0
05/09:30pm 16.8 15.9 11.5 71 2.9 NW 7 13 4 7 1020.9 1020.9 0.0
05/09:00pm 16.4 15.8 11.6 73 2.6 NNW 6 11 3 6 1020.8 1020.8 0.0
05/08:30pm 16.0 15.2 11.0 72 2.7 NNW 6 11 3 6 1020.6 1020.6 0.0
05/08:00pm 14.6 14.2 9.6 72 2.6 N 2 4 1 2 1020.4 1020.4 0.0
05/07:30pm 14.9 14.2 8.6 66 3.2 NNE 2 6 1 3 1020.4 1020.4 0.0
05/07:00pm 16.1 15.2 9.1 63 3.6 NNE 4 6 2 3 1020.3 1020.3 0.0
05/06:30pm 15.5 15.1 8.3 62 3.6 CALM 0 4 0 2 1020.0 1020.0 0.0
05/06:00pm 16.5 15.7 8.0 57 4.3 NNE 2 6 1 3 1019.8 1019.8 0.0
05/05:30pm 18.0 17.1 7.7 51 5.2 N 2 6 1 3 1019.7 1019.7 0.0
05/05:00pm 19.2 17.8 7.3 46 6.0 N 4 7 2 4 1019.7 1019.7 0.0
05/04:30pm 20.8 19.2 7.8 43 6.7 N 6 11 3 6 1019.5 1019.5 0.0
05/04:00pm 21.9 20.5 7.3 39 7.5 NNW 4 9 2 5 1019.5 1019.5 0.0
05/03:30pm 22.0 20.1 7.4 39 7.6 NW 7 13 4 7 1019.5 1019.5 0.0
05/03:00pm 22.0 19.5 6.7 37 7.8 WNW 9 20 5 11 1019.6 1019.6 0.0
05/02:30pm 21.3 18.5 6.8 39 7.4 W 11 20 6 11 1019.6 1019.6 0.0
05/02:00pm 22.4 20.2 7.8 39 7.6 WNW 9 13 5 7 1019.8 1019.8 0.0
05/01:30pm 21.2 20.2 8.8 45 6.6 SSW 4 9 2 5 1020.0 1020.0 0.0
05/01:00pm 20.6 19.8 11.0 54 5.2 W 6 7 3 4 1020.4 1020.4 0.0
05/12:30pm 20.3 20.5 12.0 59 4.6 SW 2 6 1 3 1020.8 1020.8 0.0
05/12:00pm 21.1 20.6 10.9 52 5.6 SW 4 6 2 3 1021.4 1021.4 0.0
05/11:30am 20.4 20.0 12.4 60 4.5 W 6 11 3 6 1022.0 1022.0 0.0
05/11:00am 19.4 19.2 11.9 62 4.1 SW 4 9 2 5 1022.5 1022.5 0.0
05/10:30am 18.5 18.3 11.8 65 3.7 WSW 4 9 2 5 1022.9 1022.9 0.0

Latest Capital City Observations: Canberra | Sydney | Melbourne | Brisbane | Adelaide | Perth | Hobart | Darwin

Other Formats:

Comma delimited format used in spreadsheet applications
http://www.bom.gov.au/fwo/IDQ60901/IDQ60901.94576.axf

JavaScript Object Notation format (JSON) in row-major order
http://www.bom.gov.au/fwo/IDQ60901/IDQ60901.94576.json